Terminal Aerodrome Forecast
Issued by NWS Greer, SC

Home | Current Version | Previous Version | Text Only | Print | Product List | Glossary On
Versions: 1 2 3 4 5 6 7 8 9 10 11 12 13 14 15 16 17 18 19 20 21 22 23
878
FTUS42 KGSP 022320
TAFGSP
TAF
KGSP 022320Z 0300/0324 17009KT P6SM -TSRA SCT050CB BKN080
     FM030300 20005KT P6SM SCT030 OVC060
      TEMPO 0303/0307 4SM -TSRA OVC025CB
     FM031300 24010G18KT P6SM SCT045 BKN200 PROB30 0314/0320 4SM
      -TSRA BKN045CB=

USA.gov is the U.S. government's official web portal to all federal, state and local government web resources and services.